createdAt,value
2019-01-14T00:02:24.518Z,56.89
2019-01-14T00:04:55.528Z,57.65
2019-01-14T00:07:18.972Z,58.02
2019-01-14T00:09:45.242Z,57.95
2019-01-14T00:12:11.397Z,59.07
2019-01-14T00:14:37.693Z,59.15
2019-01-14T00:17:03.953Z,58.95
2019-01-14T00:19:30.104Z,58.65
2019-01-14T00:21:56.391Z,58.34
2019-01-14T00:24:22.650Z,58.04
2019-01-14T00:26:48.925Z,57.57
2019-01-14T00:29:15.116Z,57.24
2019-01-14T00:31:41.272Z,57.03
2019-01-14T00:34:07.836Z,57.13
2019-01-14T00:36:34.140Z,58.03
2019-01-14T00:39:00.288Z,58.66
2019-01-14T00:41:26.541Z,58.10
2019-01-14T00:43:52.724Z,58.32
2019-01-14T00:46:18.876Z,58.87
2019-01-14T00:48:45.031Z,58.69
2019-01-14T00:51:11.222Z,58.79
2019-01-14T00:53:37.391Z,59.21
2019-01-14T00:56:03.547Z,59.69
2019-01-14T00:58:29.740Z,59.12
2019-01-14T01:00:57.011Z,59.97
2019-01-14T01:03:23.170Z,59.69
2019-01-14T01:05:49.554Z,59.68
2019-01-14T01:08:15.816Z,59.63
2019-01-14T01:10:41.981Z,59.06
2019-01-14T01:13:08.271Z,58.97
2019-01-14T01:15:34.525Z,58.36
2019-01-14T01:18:00.690Z,59.08
2019-01-14T01:20:28.199Z,59.11
2019-01-14T01:22:54.328Z,58.50
2019-01-14T01:25:20.483Z,58.71
2019-01-14T01:27:46.669Z,59.13
2019-01-14T01:30:15.028Z,58.85
2019-01-14T01:32:41.282Z,58.23
2019-01-14T01:35:10.030Z,59.11
2019-01-14T01:37:36.504Z,59.00
2019-01-14T01:40:09.241Z,58.85
2019-01-14T01:42:35.433Z,58.40
2019-01-14T01:45:02.080Z,59.09
2019-01-14T01:47:28.356Z,59.05
2019-01-14T01:49:54.533Z,58.46
2019-01-14T01:52:20.681Z,58.84
2019-01-14T01:54:46.945Z,59.41
2019-01-14T01:57:13.233Z,58.64
2019-01-14T01:59:39.389Z,58.76
2019-01-14T02:02:05.701Z,59.33
2019-01-14T02:04:31.881Z,59.58
2019-01-14T02:06:58.034Z,59.18
2019-01-14T02:09:24.190Z,58.42
2019-01-14T02:11:50.521Z,59.07
2019-01-14T02:14:16.772Z,58.99
2019-01-14T02:16:43.324Z,58.92
2019-01-14T02:19:09.632Z,59.18
2019-01-14T02:21:35.889Z,58.50
2019-01-14T02:24:02.042Z,58.81
2019-01-14T02:26:28.230Z,58.54
2019-01-14T02:28:54.387Z,58.39
2019-01-14T02:31:20.534Z,58.44
2019-01-14T02:33:46.714Z,58.19
2019-01-14T02:36:12.872Z,58.27
2019-01-14T02:38:39.033Z,58.10
2019-01-14T02:41:05.220Z,57.47
2019-01-14T02:43:31.374Z,57.47
2019-01-14T02:45:57.544Z,57.38
2019-01-14T02:48:23.731Z,56.92
2019-01-14T02:50:49.985Z,57.70
2019-01-14T02:53:16.138Z,57.50
2019-01-14T02:55:42.320Z,57.25
2019-01-14T02:58:08.483Z,58.26
2019-01-14T03:00:34.745Z,58.01
2019-01-14T03:03:00.951Z,58.11
2019-01-14T03:05:27.109Z,57.59
2019-01-14T03:07:53.263Z,57.66
2019-01-14T03:10:20.860Z,58.46
2019-01-14T03:12:47.024Z,58.32
2019-01-14T03:15:14.782Z,57.99
2019-01-14T03:17:40.977Z,57.35
2019-01-14T03:20:13.135Z,57.40
2019-01-14T03:22:39.294Z,57.56
2019-01-14T03:25:06.811Z,57.48
2019-01-14T03:27:32.978Z,57.37
2019-01-14T03:29:59.124Z,56.86
2019-01-14T03:32:25.416Z,56.99
2019-01-14T03:34:51.564Z,57.31
2019-01-14T03:37:17.725Z,56.73
2019-01-14T03:39:43.906Z,56.36
2019-01-14T03:42:10.060Z,56.58
2019-01-14T03:44:36.337Z,57.29
2019-01-14T03:47:02.526Z,56.64
2019-01-14T03:49:28.779Z,56.71
2019-01-14T03:51:55.040Z,56.31
2019-01-14T03:54:21.238Z,56.31
2019-01-14T03:56:47.393Z,56.41
2019-01-14T03:59:13.648Z,56.91
2019-01-14T04:01:39.830Z,57.46
2019-01-14T04:04:07.735Z,56.65
2019-01-14T04:06:33.992Z,57.02
2019-01-14T04:09:00.217Z,57.09
2019-01-14T04:11:26.451Z,56.85
2019-01-14T04:13:52.599Z,56.64
2019-01-14T04:16:18.814Z,57.22
2019-01-14T04:18:44.968Z,57.29
2019-01-14T04:21:11.120Z,57.06
2019-01-14T04:23:37.304Z,57.00
2019-01-14T04:26:03.455Z,57.21
2019-01-14T04:28:29.617Z,57.12
2019-01-14T04:30:55.809Z,56.84
2019-01-14T04:33:21.975Z,56.83
2019-01-14T04:35:48.132Z,56.93
2019-01-14T04:38:14.543Z,57.01
2019-01-14T04:40:40.688Z,56.70
2019-01-14T04:43:06.866Z,57.28
2019-01-14T04:45:33.171Z,57.77
2019-01-14T04:47:59.336Z,57.20
2019-01-14T04:50:25.483Z,57.30
2019-01-14T04:52:51.672Z,57.41
2019-01-14T04:55:17.830Z,57.37
2019-01-14T04:57:43.994Z,56.67
2019-01-14T05:00:13.625Z,56.75
2019-01-14T05:02:39.865Z,56.95
2019-01-14T05:05:06.665Z,56.42
2019-01-14T05:07:32.854Z,55.91
2019-01-14T05:09:59.015Z,55.26
2019-01-14T05:12:25.276Z,55.27
2019-01-14T05:14:51.474Z,55.09
2019-01-14T05:17:17.631Z,55.23
2019-01-14T05:19:44.177Z,55.26
2019-01-14T05:22:10.360Z,55.92
2019-01-14T05:24:36.522Z,55.78
2019-01-14T05:27:02.767Z,55.96
2019-01-14T05:29:29.086Z,55.54
2019-01-14T05:31:55.643Z,56.49
2019-01-14T05:34:21.903Z,55.98
2019-01-14T05:36:48.184Z,56.37
2019-01-14T05:39:14.748Z,55.69
2019-01-14T05:41:40.899Z,56.14
2019-01-14T05:44:07.187Z,56.21
2019-01-14T05:46:33.335Z,56.08
2019-01-14T05:48:59.511Z,55.32
2019-01-14T05:51:25.703Z,55.48
2019-01-14T05:53:51.955Z,55.25
2019-01-14T05:56:18.110Z,55.86
2019-01-14T05:58:44.308Z,55.22
2019-01-14T06:01:10.566Z,55.07
2019-01-14T06:03:36.730Z,54.50
2019-01-14T06:06:03.229Z,54.75
2019-01-14T06:08:29.384Z,54.17
2019-01-14T06:10:55.540Z,54.28
2019-01-14T06:13:21.726Z,54.32
2019-01-14T06:15:47.896Z,54.52
2019-01-14T06:18:14.055Z,53.64
2019-01-14T06:20:40.458Z,52.71
2019-01-14T06:23:06.621Z,51.63
2019-01-14T06:25:32.889Z,50.49
2019-01-14T06:27:59.089Z,50.11
2019-01-14T06:30:27.650Z,48.59
2019-01-14T06:32:55.716Z,48.15
2019-01-14T06:35:21.907Z,48.55
2019-01-14T06:37:52.295Z,46.38
2019-01-14T06:40:18.032Z,45.58
2019-01-14T06:42:44.219Z,44.64
2019-01-14T06:45:10.777Z,44.69
2019-01-14T06:47:36.930Z,44.42
2019-01-14T06:50:12.373Z,43.80
2019-01-14T06:52:38.527Z,42.29
2019-01-14T06:55:05.489Z,42.09
2019-01-14T06:57:31.672Z,43.80
2019-01-14T06:59:57.825Z,43.57
2019-01-14T07:02:24.080Z,42.85
2019-01-14T07:04:50.377Z,43.35
2019-01-14T07:07:16.611Z,44.04
2019-01-14T07:09:42.768Z,43.95
2019-01-14T07:12:08.970Z,43.71
2019-01-14T07:14:35.151Z,44.05
2019-01-14T07:17:01.306Z,44.25
2019-01-14T07:19:27.497Z,44.53
2019-01-14T07:21:53.756Z,44.96
2019-01-14T07:24:19.907Z,46.00
2019-01-14T07:26:46.599Z,46.77
2019-01-14T07:29:12.862Z,46.97
2019-01-14T07:31:39.037Z,47.35
2019-01-14T07:34:05.227Z,46.86
2019-01-14T07:36:31.391Z,46.52
2019-01-14T07:38:57.824Z,44.91
2019-01-14T07:41:24.109Z,44.56
2019-01-14T07:43:50.268Z,44.28
2019-01-14T07:46:16.537Z,41.20
2019-01-14T07:48:42.816Z,40.79
2019-01-14T07:51:08.970Z,38.85
2019-01-14T07:53:35.244Z,38.17
2019-01-14T07:56:01.436Z,39.30
2019-01-14T07:58:27.700Z,39.54
2019-01-14T08:00:53.965Z,40.21
2019-01-14T08:03:20.272Z,40.41
2019-01-14T08:05:46.434Z,40.77
2019-01-14T08:08:14.206Z,39.79
2019-01-14T08:10:40.619Z,40.19
2019-01-14T08:13:06.774Z,42.42
2019-01-14T08:15:33.030Z,40.64
2019-01-14T08:17:59.318Z,39.24
2019-01-14T08:20:25.477Z,39.76
2019-01-14T08:22:51.636Z,38.37
2019-01-14T08:25:17.830Z,37.39
2019-01-14T08:27:44.083Z,36.12
2019-01-14T08:30:16.130Z,36.80
2019-01-14T08:32:42.311Z,37.81
2019-01-14T08:35:08.673Z,37.12
2019-01-14T08:37:34.831Z,40.44
2019-01-14T08:40:01.036Z,41.30
2019-01-14T08:42:27.187Z,40.07
2019-01-14T08:44:54.039Z,38.66
2019-01-14T08:47:20.223Z,37.51
2019-01-14T08:49:46.398Z,36.88
2019-01-14T08:52:12.574Z,37.05
2019-01-14T08:54:38.761Z,35.84
2019-01-14T08:57:04.914Z,37.38
2019-01-14T08:59:31.063Z,36.97
2019-01-14T09:01:57.256Z,36.79
2019-01-14T09:04:24.474Z,36.37
2019-01-14T09:06:50.786Z,36.57
2019-01-14T09:09:17.123Z,37.50
2019-01-14T09:11:43.407Z,37.07
2019-01-14T09:14:09.689Z,36.89
2019-01-14T09:16:35.874Z,36.54
2019-01-14T09:19:02.034Z,36.29
2019-01-14T09:21:28.294Z,36.43
2019-01-14T09:23:54.501Z,36.97
2019-01-14T09:26:20.650Z,36.94
2019-01-14T09:28:46.815Z,37.65
2019-01-14T09:31:13.004Z,37.68
2019-01-14T09:33:39.158Z,36.78
2019-01-14T09:36:05.413Z,37.22
2019-01-14T09:38:35.723Z,37.37
2019-01-14T09:40:59.658Z,36.14
2019-01-14T09:43:25.925Z,36.55
2019-01-14T09:45:52.227Z,35.68
2019-01-14T09:48:18.391Z,34.99
2019-01-14T09:50:44.544Z,33.38
2019-01-14T09:53:10.758Z,33.20
2019-01-14T09:55:36.930Z,31.81
2019-01-14T09:58:03.079Z,33.41
2019-01-14T10:00:29.284Z,33.53
2019-01-14T10:02:55.775Z,34.12
2019-01-14T10:05:21.938Z,32.50
2019-01-14T10:07:48.272Z,33.11
2019-01-14T10:10:17.807Z,32.34
2019-01-14T10:12:44.077Z,31.79
2019-01-14T10:15:13.272Z,32.01
2019-01-14T10:17:39.961Z,32.16
2019-01-14T10:20:08.030Z,32.88
2019-01-14T10:22:34.342Z,30.82
2019-01-14T10:25:01.129Z,30.34
2019-01-14T10:27:27.297Z,30.18
2019-01-14T10:29:53.498Z,28.81
2019-01-14T10:32:19.673Z,30.05
2019-01-14T10:34:45.826Z,30.13
2019-01-14T10:37:12.033Z,31.88
2019-01-14T10:39:38.440Z,30.31
2019-01-14T10:42:05.125Z,30.85
2019-01-14T10:44:31.612Z,31.74
2019-01-14T10:46:57.781Z,30.30
2019-01-14T10:49:23.944Z,29.35
2019-01-14T10:51:50.145Z,29.44
2019-01-14T10:54:16.403Z,31.01
2019-01-14T10:56:44.004Z,30.07
2019-01-14T10:59:10.804Z,30.98
2019-01-14T11:01:36.955Z,29.25
2019-01-14T11:04:03.225Z,29.46
2019-01-14T11:06:29.482Z,28.99
2019-01-14T11:08:57.739Z,29.71
2019-01-14T11:11:23.956Z,29.51
2019-01-14T11:13:50.160Z,29.44
2019-01-14T11:16:16.327Z,29.64
2019-01-14T11:18:46.893Z,29.90
2019-01-14T11:21:14.521Z,30.23
2019-01-14T11:23:40.867Z,29.21
2019-01-14T11:26:10.033Z,30.11
2019-01-14T11:28:36.232Z,29.80
2019-01-14T11:31:06.404Z,30.82
2019-01-14T11:33:36.188Z,29.70
2019-01-14T11:36:02.784Z,29.66
2019-01-14T11:38:38.611Z,31.66
2019-01-14T11:41:04.924Z,30.78
2019-01-14T11:43:31.090Z,31.88
2019-01-14T11:45:57.253Z,32.99
2019-01-14T11:48:23.444Z,34.28
2019-01-14T11:50:49.600Z,34.56
2019-01-14T11:53:15.768Z,34.59
2019-01-14T11:55:41.968Z,35.35
2019-01-14T11:58:08.134Z,35.79
2019-01-14T12:00:36.733Z,36.57
2019-01-14T12:03:02.395Z,35.49
2019-01-14T12:05:28.666Z,35.21
2019-01-14T12:07:54.915Z,34.81
2019-01-14T12:10:21.211Z,35.54
2019-01-14T12:12:47.378Z,36.88
2019-01-14T12:15:19.335Z,36.83
2019-01-14T12:17:45.685Z,38.84
2019-01-14T12:20:13.552Z,39.50
2019-01-14T12:22:39.705Z,39.85
2019-01-14T12:25:07.601Z,40.59
2019-01-14T12:27:33.760Z,41.66
2019-01-14T12:29:59.925Z,41.34
2019-01-14T12:32:26.114Z,40.07
2019-01-14T12:34:52.275Z,38.72
2019-01-14T12:37:18.540Z,36.81
2019-01-14T12:39:44.852Z,36.08
2019-01-14T12:42:11.108Z,36.47
2019-01-14T12:44:37.266Z,35.79
2019-01-14T12:47:03.759Z,36.89
2019-01-14T12:49:29.923Z,35.46
2019-01-14T12:51:56.085Z,35.25
2019-01-14T12:54:22.378Z,34.93
2019-01-14T12:56:48.545Z,34.57
2019-01-14T12:59:14.727Z,34.70
2019-01-14T13:01:40.962Z,34.33
2019-01-14T13:04:07.127Z,34.06
2019-01-14T13:06:33.284Z,34.70
2019-01-14T13:08:59.580Z,35.52
2019-01-14T13:11:25.747Z,35.75
2019-01-14T13:13:52.972Z,35.02
2019-01-14T13:16:19.151Z,35.34
2019-01-14T13:18:45.319Z,35.86
2019-01-14T13:21:11.573Z,36.60
2019-01-14T13:23:37.870Z,36.35
2019-01-14T13:26:04.132Z,37.06
2019-01-14T13:28:30.400Z,37.11
2019-01-14T13:30:56.694Z,37.90
2019-01-14T13:33:22.845Z,38.92
2019-01-14T13:35:49.019Z,39.84
2019-01-14T13:38:15.223Z,42.16
2019-01-14T13:40:41.444Z,41.10
2019-01-14T13:43:07.704Z,40.75
2019-01-14T13:45:34.008Z,40.30
2019-01-14T13:48:00.181Z,41.45
2019-01-14T13:50:26.537Z,40.68
2019-01-14T13:52:53.024Z,41.98
2019-01-14T13:55:19.587Z,41.54
2019-01-14T13:57:45.756Z,41.32
2019-01-14T14:00:22.523Z,41.59
2019-01-14T14:02:48.680Z,41.66
2019-01-14T14:05:14.938Z,41.68
2019-01-14T14:07:41.138Z,42.39
2019-01-14T14:10:13.754Z,43.23
2019-01-14T14:12:39.910Z,44.20
2019-01-14T14:15:08.953Z,44.29
2019-01-14T14:17:35.113Z,45.08
2019-01-14T14:20:01.271Z,45.59
2019-01-14T14:22:27.564Z,45.72
2019-01-14T14:24:53.833Z,45.29
2019-01-14T14:27:19.999Z,45.43
2019-01-14T14:29:46.191Z,45.14
2019-01-14T14:32:12.348Z,45.06
2019-01-14T14:34:38.507Z,44.92
2019-01-14T14:37:04.707Z,44.99
2019-01-14T14:39:30.963Z,45.12
2019-01-14T14:41:57.127Z,44.76
2019-01-14T14:44:23.322Z,45.33
2019-01-14T14:46:49.477Z,45.08
2019-01-14T14:49:15.627Z,44.72
2019-01-14T14:51:41.824Z,45.16
2019-01-14T14:54:07.981Z,44.98
2019-01-14T14:56:34.131Z,45.57
2019-01-14T14:59:00.329Z,45.40
2019-01-14T15:01:26.486Z,47.09
2019-01-14T15:03:52.640Z,46.72
2019-01-14T15:06:18.831Z,47.84
2019-01-14T15:08:44.988Z,47.91
2019-01-14T15:11:11.149Z,48.07
2019-01-14T15:13:37.346Z,48.57
2019-01-14T15:16:04.427Z,48.19
2019-01-14T15:18:30.584Z,49.53
2019-01-14T15:20:56.766Z,48.93
2019-01-14T15:23:22.990Z,49.09
2019-01-14T15:25:49.146Z,50.04
2019-01-14T15:28:15.336Z,49.66
2019-01-14T15:30:41.489Z,49.36
2019-01-14T15:33:07.643Z,49.17
2019-01-14T15:35:33.845Z,49.14
2019-01-14T15:37:59.988Z,49.28
2019-01-14T15:40:26.154Z,49.98
2019-01-14T15:42:52.344Z,49.45
2019-01-14T15:45:20.709Z,50.39
2019-01-14T15:47:46.881Z,49.61
2019-01-14T15:50:13.165Z,50.55
2019-01-14T15:52:39.321Z,50.18
2019-01-14T15:55:08.779Z,50.45
2019-01-14T15:57:34.976Z,51.66
2019-01-14T16:00:01.241Z,50.35
2019-01-14T16:02:27.399Z,50.48
2019-01-14T16:04:53.686Z,50.94
2019-01-14T16:07:19.839Z,51.45
2019-01-14T16:09:46.098Z,50.95
2019-01-14T16:12:12.289Z,51.17
2019-01-14T16:14:38.459Z,51.05
2019-01-14T16:17:04.793Z,51.42
2019-01-14T16:19:31.025Z,51.76
2019-01-14T16:21:57.180Z,51.98
2019-01-14T16:24:23.335Z,51.47
2019-01-14T16:26:49.522Z,50.95
2019-01-14T16:29:15.675Z,51.13
2019-01-14T16:31:41.958Z,52.28
2019-01-14T16:34:08.144Z,51.18
2019-01-14T16:36:34.306Z,51.81
2019-01-14T16:39:00.486Z,52.22
2019-01-14T16:41:26.943Z,52.51
2019-01-14T16:43:53.071Z,52.04
2019-01-14T16:46:19.248Z,51.38
2019-01-14T16:48:45.971Z,51.95
2019-01-14T16:51:12.289Z,51.91
2019-01-14T16:53:38.445Z,52.49
2019-01-14T16:56:04.836Z,52.59
2019-01-14T16:58:31.391Z,52.33
2019-01-14T17:00:57.796Z,51.92
2019-01-14T17:03:23.984Z,52.69
2019-01-14T17:05:50.141Z,52.64
2019-01-14T17:08:16.310Z,52.59
2019-01-14T17:10:42.516Z,53.00
2019-01-14T17:13:08.672Z,52.14
2019-01-14T17:15:35.110Z,52.97
2019-01-14T17:18:01.298Z,52.06
2019-01-14T17:20:27.456Z,52.71
2019-01-14T17:22:53.617Z,52.49
2019-01-14T17:25:19.854Z,52.32
2019-01-14T17:27:46.004Z,52.81
2019-01-14T17:30:14.273Z,52.82
2019-01-14T17:32:40.462Z,53.24
2019-01-14T17:35:06.733Z,53.19
2019-01-14T17:37:32.884Z,52.16
2019-01-14T17:39:59.084Z,52.95
2019-01-14T17:42:25.727Z,51.51
2019-01-14T17:44:51.878Z,52.58
2019-01-14T17:47:18.068Z,52.52
2019-01-14T17:49:44.224Z,52.42
2019-01-14T17:52:10.501Z,52.73
2019-01-14T17:54:36.811Z,52.07
2019-01-14T17:57:02.964Z,51.80
2019-01-14T17:59:29.117Z,51.66
2019-01-14T18:01:55.304Z,52.40
2019-01-14T18:04:21.461Z,51.15
2019-01-14T18:06:47.627Z,50.92
2019-01-14T18:09:13.834Z,51.35
2019-01-14T18:11:40.100Z,50.95
2019-01-14T18:14:06.418Z,50.71
2019-01-14T18:16:32.595Z,51.17
2019-01-14T18:18:58.870Z,50.90
2019-01-14T18:21:25.132Z,51.33
2019-01-14T18:23:51.425Z,50.26
2019-01-14T18:26:17.579Z,50.20
2019-01-14T18:28:43.956Z,50.98
2019-01-14T18:31:10.164Z,51.23
2019-01-14T18:33:36.310Z,51.13
2019-01-14T18:36:02.476Z,51.10
2019-01-14T18:38:28.665Z,50.48
2019-01-14T18:40:54.821Z,50.77
2019-01-14T18:43:20.991Z,50.77
2019-01-14T18:45:47.182Z,50.37
2019-01-14T18:48:13.345Z,50.54
2019-01-14T18:50:39.504Z,51.04
2019-01-14T18:53:05.709Z,50.05
2019-01-14T18:55:31.973Z,50.89
2019-01-14T18:57:58.227Z,51.72
2019-01-14T19:00:24.411Z,51.08
2019-01-14T19:02:50.580Z,51.44
2019-01-14T19:05:16.844Z,51.57
2019-01-14T19:07:43.146Z,52.87
2019-01-14T19:10:11.313Z,51.61
2019-01-14T19:12:37.484Z,51.93
2019-01-14T19:15:36.372Z,52.56
2019-01-14T19:18:02.729Z,52.12
2019-01-14T19:20:29.010Z,52.34
2019-01-14T19:22:55.220Z,51.85
2019-01-14T19:25:21.420Z,52.07
2019-01-14T19:27:47.583Z,52.76
2019-01-14T19:30:16.386Z,52.31
2019-01-14T19:32:42.734Z,52.11
2019-01-14T19:35:08.995Z,52.18
2019-01-14T19:37:35.245Z,51.76
2019-01-14T19:40:03.512Z,52.20
2019-01-14T19:42:30.065Z,52.42
2019-01-14T19:44:56.351Z,51.41
2019-01-14T19:47:22.634Z,52.48
2019-01-14T19:49:48.900Z,52.41
2019-01-14T19:52:15.207Z,53.41
2019-01-14T19:54:41.361Z,52.46
2019-01-14T19:57:07.517Z,53.22
2019-01-14T19:59:33.727Z,52.08
2019-01-14T20:01:59.985Z,53.45
2019-01-14T20:04:26.149Z,51.84
2019-01-14T20:06:52.345Z,53.15
2019-01-14T20:09:18.515Z,51.91
2019-01-14T20:11:44.772Z,51.87
2019-01-14T20:14:10.972Z,51.87
2019-01-14T20:16:39.152Z,51.85
2019-01-14T20:19:05.323Z,51.05
2019-01-14T20:21:31.510Z,50.95
2019-01-14T20:23:57.717Z,51.29
2019-01-14T20:26:23.993Z,51.26
2019-01-14T20:28:50.294Z,51.18
2019-01-14T20:31:16.552Z,51.78
2019-01-14T20:33:42.717Z,51.54
2019-01-14T20:36:09.026Z,52.12
2019-01-14T20:38:35.229Z,52.41
2019-01-14T20:41:01.482Z,52.13
2019-01-14T20:43:27.708Z,51.48
2019-01-14T20:45:54.061Z,53.11
2019-01-14T20:48:20.337Z,52.61
2019-01-14T20:50:46.534Z,52.98
2019-01-14T20:53:13.755Z,52.28
2019-01-14T20:55:40.256Z,53.44
2019-01-14T20:58:06.444Z,53.38
2019-01-14T21:00:32.603Z,53.26
2019-01-14T21:02:58.766Z,53.25
2019-01-14T21:05:25.582Z,53.26
2019-01-14T21:07:52.158Z,52.54
2019-01-14T21:10:18.420Z,52.31
2019-01-14T21:12:44.702Z,51.75
2019-01-14T21:15:11.464Z,51.92
2019-01-14T21:17:38.581Z,51.18
2019-01-14T21:20:11.271Z,51.32
2019-01-14T21:22:38.392Z,51.25
2019-01-14T21:25:06.157Z,50.98
2019-01-14T21:27:32.445Z,51.42
2019-01-14T21:29:58.612Z,51.77
2019-01-14T21:32:24.774Z,52.14
2019-01-14T21:34:50.951Z,51.56
2019-01-14T21:37:17.209Z,51.81
2019-01-14T21:39:43.499Z,51.07
2019-01-14T21:42:09.825Z,51.31
2019-01-14T21:44:36.089Z,51.31
2019-01-14T21:47:02.352Z,51.41
2019-01-14T21:49:28.665Z,51.41
2019-01-14T21:51:55.066Z,51.62
2019-01-14T21:54:21.278Z,51.51
2019-01-14T21:56:47.463Z,51.60
2019-01-14T21:59:13.617Z,51.58
2019-01-14T22:01:39.773Z,51.49
2019-01-14T22:04:06.112Z,52.24
2019-01-14T22:06:32.422Z,51.74
2019-01-14T22:08:58.586Z,51.89
2019-01-14T22:11:28.420Z,52.52
2019-01-14T22:13:54.573Z,52.04
2019-01-14T22:16:20.735Z,51.93
2019-01-14T22:18:46.920Z,52.17
2019-01-14T22:21:13.077Z,51.74
2019-01-14T22:23:40.341Z,51.33
2019-01-14T22:26:06.625Z,51.82
2019-01-14T22:28:32.784Z,51.58
2019-01-14T22:30:58.950Z,51.92
2019-01-14T22:33:25.243Z,52.03
2019-01-14T22:35:51.399Z,52.34
2019-01-14T22:38:17.560Z,51.72
2019-01-14T22:40:43.753Z,52.54
2019-01-14T22:43:09.902Z,52.01
2019-01-14T22:45:36.147Z,52.17
2019-01-14T22:48:02.321Z,51.92
2019-01-14T22:50:28.375Z,52.00
2019-01-14T22:52:54.520Z,53.00
2019-01-14T22:55:20.705Z,52.91
2019-01-14T22:57:46.867Z,53.13
2019-01-14T23:00:36.405Z,53.62
2019-01-14T23:03:02.761Z,53.24
2019-01-14T23:05:29.003Z,53.89
2019-01-14T23:07:55.204Z,54.69
2019-01-14T23:10:21.348Z,54.54
2019-01-14T23:12:47.502Z,53.88
2019-01-14T23:15:13.808Z,54.74
2019-01-14T23:17:39.966Z,54.57
2019-01-14T23:20:06.220Z,54.96
2019-01-14T23:22:32.420Z,55.11
2019-01-14T23:24:58.583Z,55.62
2019-01-14T23:27:24.849Z,55.45
2019-01-14T23:29:51.048Z,56.73
2019-01-14T23:32:17.224Z,54.66
2019-01-14T23:34:43.401Z,54.03
2019-01-14T23:37:09.688Z,53.94
2019-01-14T23:39:35.834Z,52.86
2019-01-14T23:42:02.091Z,52.33
2019-01-14T23:44:28.279Z,51.31
2019-01-14T23:46:54.538Z,51.65
2019-01-14T23:49:20.687Z,51.18
2019-01-14T23:51:46.872Z,50.67
2019-01-14T23:54:13.032Z,50.58
2019-01-14T23:56:39.183Z,49.92
2019-01-14T23:59:05.382Z,50.29
